Aviation Digital Data Service (ADDS)

Output produced by METARs form (0753 UTC 20 March 2019)
found at http://www.aviationweather.gov/metar/data/
 
METAR text: UIAA 200730Z 34002MPS 9999 NSC M02/M18 Q1018 R29/410160 NOSIG RMK QFE705/0940
Conditions at: UIAA (CITA/KADALA , RU) observed 0730 UTC 20 March 2019
Temperature: -2.0°C (28°F)
Dewpoint: -18.0°C (-0°F) [RH = 28%]
Pressure (altimeter): 30.06 inches Hg (1018.0 mb)
Winds: from the NNW (340 degrees) at 5 MPH (4 knots; 2.1 m/s)
Visibility: 6 or more miles (10+ km)
Ceiling: at least 12,000 feet AGL
Clouds: sky clear below 12,000 feet AGL
Weather: no significant weather observed at this time

METAR text: UIAA 200700Z 34002G09MPS 290V050 9999 NSC M02/M19 Q1018 R29/410160 NOSIG RMK QFE705/0940
Conditions at: UIAA (CITA/KADALA , RU) observed 0700 UTC 20 March 2019
Temperature: -2.0°C (28°F)
Dewpoint: -19.0°C (-2°F) [RH = 26%]
Pressure (altimeter): 30.06 inches Hg (1018.0 mb)
Winds: from the NNW (340 degrees) at 5 MPH (4 knots; 2.1 m/s)
gusting to 20 MPH (17 knots; 8.7 m/s)
Visibility: 6 or more miles (10+ km)
Ceiling: at least 12,000 feet AGL
Clouds: sky clear below 12,000 feet AGL
Weather: no significant weather observed at this time

METAR text: UIAA 200630Z VRB01MPS 9999 NSC M01/M18 Q1018 R29/510150 NOSIG RMK QFE705/0940
Conditions at: UIAA (CITA/KADALA , RU) observed 0630 UTC 20 March 2019
Temperature: -1.0°C (30°F)
Dewpoint: -18.0°C (-0°F) [RH = 26%]
Pressure (altimeter): 30.06 inches Hg (1018.0 mb)
Winds: variable direction winds at 2 MPH (2 knots; 1.0 m/s)
Visibility: 6 or more miles (10+ km)
Ceiling: at least 12,000 feet AGL
Clouds: sky clear below 12,000 feet AGL
Weather: no significant weather observed at this time

METAR text: UIAA 200600Z VRB01MPS 9999 NSC M02/M18 Q1018 R29/510150 NOSIG RMK QFE705/0940
Conditions at: UIAA (CITA/KADALA , RU) observed 0600 UTC 20 March 2019
Temperature: -2.0°C (28°F)
Dewpoint: -18.0°C (-0°F) [RH = 28%]
Pressure (altimeter): 30.06 inches Hg (1018.0 mb)
Winds: variable direction winds at 2 MPH (2 knots; 1.0 m/s)
Visibility: 6 or more miles (10+ km)
Ceiling: at least 12,000 feet AGL
Clouds: sky clear below 12,000 feet AGL
Weather: no significant weather observed at this time

METAR text: UIAA 200530Z VRB01MPS 9999 NSC M02/M18 Q1018 R29/510150 NOSIG RMK QFE705/0940
Conditions at: UIAA (CITA/KADALA , RU) observed 0530 UTC 20 March 2019
Temperature: -2.0°C (28°F)
Dewpoint: -18.0°C (-0°F) [RH = 28%]
Pressure (altimeter): 30.06 inches Hg (1018.0 mb)
Winds: variable direction winds at 2 MPH (2 knots; 1.0 m/s)
Visibility: 6 or more miles (10+ km)
Ceiling: at least 12,000 feet AGL
Clouds: sky clear below 12,000 feet AGL
Weather: no significant weather observed at this time

METAR text: UIAA 200500Z 00000MPS 9999 NSC M01/M18 Q1018 R29/510150 NOSIG RMK QFE705/0940
Conditions at: UIAA (CITA/KADALA , RU) observed 0500 UTC 20 March 2019
Temperature: -1.0°C (30°F)
Dewpoint: -18.0°C (-0°F) [RH = 26%]
Pressure (altimeter): 30.06 inches Hg (1018.0 mb)
Winds: calm
Visibility: 6 or more miles (10+ km)
Ceiling: at least 12,000 feet AGL
Clouds: sky clear below 12,000 feet AGL
Weather: no significant weather observed at this time

METAR text: UIAA 200430Z 00000MPS 9999 NSC M02/M18 Q1019 R29/510150 NOSIG RMK QFE705/0941
Conditions at: UIAA (CITA/KADALA , RU) observed 0430 UTC 20 March 2019
Temperature: -2.0°C (28°F)
Dewpoint: -18.0°C (-0°F) [RH = 28%]
Pressure (altimeter): 30.09 inches Hg (1019.0 mb)
Winds: calm
Visibility: 6 or more miles (10+ km)
Ceiling: at least 12,000 feet AGL
Clouds: sky clear below 12,000 feet AGL
Weather: no significant weather observed at this time

METAR text: UIAA 200400Z 00000MPS 9999 NSC M03/M17 Q1019 R29/510150 NOSIG RMK QFE706/0941
Conditions at: UIAA (CITA/KADALA , RU) observed 0400 UTC 20 March 2019
Temperature: -3.0°C (27°F)
Dewpoint: -17.0°C ( 1°F) [RH = 33%]
Pressure (altimeter): 30.09 inches Hg (1019.0 mb)
Winds: calm
Visibility: 6 or more miles (10+ km)
Ceiling: at least 12,000 feet AGL
Clouds: sky clear below 12,000 feet AGL
Weather: no significant weather observed at this time

METAR text: UIAA 200330Z 08001MPS 9999 NSC M05/M14 Q1019 R29/510150 NOSIG RMK QFE706/0941
Conditions at: UIAA (CITA/KADALA , RU) observed 0330 UTC 20 March 2019
Temperature: -5.0°C (23°F)
Dewpoint: -14.0°C ( 7°F) [RH = 49%]
Pressure (altimeter): 30.09 inches Hg (1019.0 mb)
Winds: from the E (80 degrees) at 2 MPH (2 knots; 1.0 m/s)
Visibility: 6 or more miles (10+ km)
Ceiling: at least 12,000 feet AGL
Clouds: sky clear below 12,000 feet AGL
Weather: no significant weather observed at this time

METAR text: UIAA 200300Z 05002MPS 9999 NSC M06/M13 Q1019 R29/510150 NOSIG RMK QFE706/0941
Conditions at: UIAA (CITA/KADALA , RU) observed 0300 UTC 20 March 2019
Temperature: -6.0°C (21°F)
Dewpoint: -13.0°C ( 9°F) [RH = 58%]
Pressure (altimeter): 30.09 inches Hg (1019.0 mb)
Winds: from the NE (50 degrees) at 5 MPH (4 knots; 2.1 m/s)
Visibility: 6 or more miles (10+ km)
Ceiling: at least 12,000 feet AGL
Clouds: sky clear below 12,000 feet AGL
Weather: no significant weather observed at this time

METAR text: UIAA 200230Z 00000MPS 9999 NSC M05/M15 Q1019 R29/510150 NOSIG RMK QFE706/0941
Conditions at: UIAA (CITA/KADALA , RU) observed 0230 UTC 20 March 2019
Temperature: -5.0°C (23°F)
Dewpoint: -15.0°C ( 5°F) [RH = 45%]
Pressure (altimeter): 30.09 inches Hg (1019.0 mb)
Winds: calm
Visibility: 6 or more miles (10+ km)
Ceiling: at least 12,000 feet AGL
Clouds: sky clear below 12,000 feet AGL
Weather: no significant weather observed at this time

METAR text: UIAA 200200Z 21002MPS 180V250 9999 NSC M07/M16 Q1019 R29/510150 NOSIG RMK QFE706/0941
Conditions at: UIAA (CITA/KADALA , RU) observed 0200 UTC 20 March 2019
Temperature: -7.0°C (19°F)
Dewpoint: -16.0°C ( 3°F) [RH = 49%]
Pressure (altimeter): 30.09 inches Hg (1019.0 mb)
Winds: from the SSW (210 degrees) at 5 MPH (4 knots; 2.1 m/s)
Visibility: 6 or more miles (10+ km)
Ceiling: at least 12,000 feet AGL
Clouds: sky clear below 12,000 feet AGL
Weather: no significant weather observed at this time

METAR text: UIAA 200130Z 20002MPS 9999 NSC M09/M16 Q1019 R29/510150 NOSIG RMK QFE706/0941
Conditions at: UIAA (CITA/KADALA , RU) observed 0130 UTC 20 March 2019
Temperature: -9.0°C (16°F)
Dewpoint: -16.0°C ( 3°F) [RH = 57%]
Pressure (altimeter): 30.09 inches Hg (1019.0 mb)
Winds: from the SSW (200 degrees) at 5 MPH (4 knots; 2.1 m/s)
Visibility: 6 or more miles (10+ km)
Ceiling: at least 12,000 feet AGL
Clouds: sky clear below 12,000 feet AGL
Weather: no significant weather observed at this time

METAR text: UIAA 200100Z VRB01MPS 9999 NSC M12/M16 Q1019 R29/510150 NOSIG RMK QFE706/0941
Conditions at: UIAA (CITA/KADALA , RU) observed 0100 UTC 20 March 2019
Temperature: -12.0°C (10°F)
Dewpoint: -16.0°C ( 3°F) [RH = 72%]
Pressure (altimeter): 30.09 inches Hg (1019.0 mb)
Winds: variable direction winds at 2 MPH (2 knots; 1.0 m/s)
Visibility: 6 or more miles (10+ km)
Ceiling: at least 12,000 feet AGL
Clouds: sky clear below 12,000 feet AGL
Weather: no significant weather observed at this time

METAR text: UIAA 200030Z 00000MPS 9999 NSC M13/M17 Q1019 R29/510150 NOSIG RMK QFE706/0941
Conditions at: UIAA (CITA/KADALA , RU) observed 0030 UTC 20 March 2019
Temperature: -13.0°C ( 9°F)
Dewpoint: -17.0°C ( 1°F) [RH = 72%]
Pressure (altimeter): 30.09 inches Hg (1019.0 mb)
Winds: calm
Visibility: 6 or more miles (10+ km)
Ceiling: at least 12,000 feet AGL
Clouds: sky clear below 12,000 feet AGL
Weather: no significant weather observed at this time

METAR text: UIAA 200000Z 00000MPS 9999 NSC M14/M16 Q1019 R29/510150 NOSIG RMK QFE705/0941
Conditions at: UIAA (CITA/KADALA , RU) observed 0000 UTC 20 March 2019
Temperature: -14.0°C ( 7°F)
Dewpoint: -16.0°C ( 3°F) [RH = 85%]
Pressure (altimeter): 30.09 inches Hg (1019.0 mb)
Winds: calm
Visibility: 6 or more miles (10+ km)
Ceiling: at least 12,000 feet AGL
Clouds: sky clear below 12,000 feet AGL
Weather: no significant weather observed at this time

METAR text: UIAA 192330Z 00000MPS 9999 NSC M18/M20 Q1019 R29/510150 NOSIG RMK QFE705/0941
Conditions at: UIAA (CITA/KADALA , RU) observed 2330 UTC 19 March 2019
Temperature: -18.0°C (-0°F)
Dewpoint: -20.0°C (-4°F) [RH = 84%]
Pressure (altimeter): 30.09 inches Hg (1019.0 mb)
Winds: calm
Visibility: 6 or more miles (10+ km)
Ceiling: at least 12,000 feet AGL
Clouds: sky clear below 12,000 feet AGL
Weather: no significant weather observed at this time

METAR text: UIAA 192300Z 00000MPS 9999 NSC M19/M21 Q1019 R29/510150 NOSIG RMK QFE705/0941
Conditions at: UIAA (CITA/KADALA , RU) observed 2300 UTC 19 March 2019
Temperature: -19.0°C (-2°F)
Dewpoint: -21.0°C (-6°F) [RH = 84%]
Pressure (altimeter): 30.09 inches Hg (1019.0 mb)
Winds: calm
Visibility: 6 or more miles (10+ km)
Ceiling: at least 12,000 feet AGL
Clouds: sky clear below 12,000 feet AGL
Weather: no significant weather observed at this time

METAR text: UIAA 192230Z 00000MPS 9999 NSC M20/M22 Q1018 R29/510150 NOSIG RMK QFE705/0940
Conditions at: UIAA (CITA/KADALA , RU) observed 2230 UTC 19 March 2019
Temperature: -20.0°C (-4°F)
Dewpoint: -22.0°C (-8°F) [RH = 84%]
Pressure (altimeter): 30.06 inches Hg (1018.0 mb)
Winds: calm
Visibility: 6 or more miles (10+ km)
Ceiling: at least 12,000 feet AGL
Clouds: sky clear below 12,000 feet AGL
Weather: no significant weather observed at this time

METAR text: UIAA 192200Z 00000MPS 9999 NSC M18/M20 Q1018 R29/510150 NOSIG RMK QFE705/0940
Conditions at: UIAA (CITA/KADALA , RU) observed 2200 UTC 19 March 2019
Temperature: -18.0°C (-0°F)
Dewpoint: -20.0°C (-4°F) [RH = 84%]
Pressure (altimeter): 30.06 inches Hg (1018.0 mb)
Winds: calm
Visibility: 6 or more miles (10+ km)
Ceiling: at least 12,000 feet AGL
Clouds: sky clear below 12,000 feet AGL
Weather: no significant weather observed at this time

METAR text: UIAA 192130Z 32001MPS 9999 NSC M18/M20 Q1018 R29/510150 NOSIG RMK QFE705/0940
Conditions at: UIAA (CITA/KADALA , RU) observed 2130 UTC 19 March 2019
Temperature: -18.0°C (-0°F)
Dewpoint: -20.0°C (-4°F) [RH = 84%]
Pressure (altimeter): 30.06 inches Hg (1018.0 mb)
Winds: from the NW (320 degrees) at 2 MPH (2 knots; 1.0 m/s)
Visibility: 6 or more miles (10+ km)
Ceiling: at least 12,000 feet AGL
Clouds: sky clear below 12,000 feet AGL
Weather: no significant weather observed at this time

METAR text: UIAA 192100Z VRB01MPS 9999 NSC M19/M21 Q1017 R29/510150 NOSIG RMK QFE704/0939
Conditions at: UIAA (CITA/KADALA , RU) observed 2100 UTC 19 March 2019
Temperature: -19.0°C (-2°F)
Dewpoint: -21.0°C (-6°F) [RH = 84%]
Pressure (altimeter): 30.03 inches Hg (1017.0 mb)
Winds: variable direction winds at 2 MPH (2 knots; 1.0 m/s)
Visibility: 6 or more miles (10+ km)
Ceiling: at least 12,000 feet AGL
Clouds: sky clear below 12,000 feet AGL
Weather: no significant weather observed at this time

METAR text: UIAA 192030Z 30001MPS 9999 NSC M18/M20 Q1017 R29/510150 NOSIG RMK QFE704/0939
Conditions at: UIAA (CITA/KADALA , RU) observed 2030 UTC 19 March 2019
Temperature: -18.0°C (-0°F)
Dewpoint: -20.0°C (-4°F) [RH = 84%]
Pressure (altimeter): 30.03 inches Hg (1017.0 mb)
Winds: from the WNW (300 degrees) at 2 MPH (2 knots; 1.0 m/s)
Visibility: 6 or more miles (10+ km)
Ceiling: at least 12,000 feet AGL
Clouds: sky clear below 12,000 feet AGL
Weather: no significant weather observed at this time

METAR text: UIAA 192000Z 00000MPS 9999 NSC M17/M19 Q1017 R29/510150 NOSIG RMK QFE704/0939
Conditions at: UIAA (CITA/KADALA , RU) observed 2000 UTC 19 March 2019
Temperature: -17.0°C ( 1°F)
Dewpoint: -19.0°C (-2°F) [RH = 84%]
Pressure (altimeter): 30.03 inches Hg (1017.0 mb)
Winds: calm
Visibility: 6 or more miles (10+ km)
Ceiling: at least 12,000 feet AGL
Clouds: sky clear below 12,000 feet AGL
Weather: no significant weather observed at this time

METAR text: UIAA 191930Z VRB01MPS 9999 NSC M17/M20 Q1017 R29/510150 NOSIG RMK QFE704/0939
Conditions at: UIAA (CITA/KADALA , RU) observed 1930 UTC 19 March 2019
Temperature: -17.0°C ( 1°F)
Dewpoint: -20.0°C (-4°F) [RH = 77%]
Pressure (altimeter): 30.03 inches Hg (1017.0 mb)
Winds: variable direction winds at 2 MPH (2 knots; 1.0 m/s)
Visibility: 6 or more miles (10+ km)
Ceiling: at least 12,000 feet AGL
Clouds: sky clear below 12,000 feet AGL
Weather: no significant weather observed at this time

METAR text: UIAA 191900Z 28001MPS 9999 NSC M16/M18 Q1017 R29/510150 NOSIG RMK QFE704/0939
Conditions at: UIAA (CITA/KADALA , RU) observed 1900 UTC 19 March 2019
Temperature: -16.0°C ( 3°F)
Dewpoint: -18.0°C (-0°F) [RH = 85%]
Pressure (altimeter): 30.03 inches Hg (1017.0 mb)
Winds: from the W (280 degrees) at 2 MPH (2 knots; 1.0 m/s)
Visibility: 6 or more miles (10+ km)
Ceiling: at least 12,000 feet AGL
Clouds: sky clear below 12,000 feet AGL
Weather: no significant weather observed at this time

METAR text: UIAA 191830Z 09001MPS 9999 NSC M16/M18 Q1017 R29/510150 NOSIG RMK QFE704/0939
Conditions at: UIAA (CITA/KADALA , RU) observed 1830 UTC 19 March 2019
Temperature: -16.0°C ( 3°F)
Dewpoint: -18.0°C (-0°F) [RH = 85%]
Pressure (altimeter): 30.03 inches Hg (1017.0 mb)
Winds: from the E (90 degrees) at 2 MPH (2 knots; 1.0 m/s)
Visibility: 6 or more miles (10+ km)
Ceiling: at least 12,000 feet AGL
Clouds: sky clear below 12,000 feet AGL
Weather: no significant weather observed at this time

METAR text: UIAA 191800Z 00000MPS 9999 NSC M15/M17 Q1016 R29/510150 NOSIG RMK QFE704/0938
Conditions at: UIAA (CITA/KADALA , RU) observed 1800 UTC 19 March 2019
Temperature: -15.0°C ( 5°F)
Dewpoint: -17.0°C ( 1°F) [RH = 85%]
Pressure (altimeter): 30.00 inches Hg (1016.0 mb)
Winds: calm
Visibility: 6 or more miles (10+ km)
Ceiling: at least 12,000 feet AGL
Clouds: sky clear below 12,000 feet AGL
Weather: no significant weather observed at this time

METAR text: UIAA 191730Z 08001MPS 9999 NSC M15/M17 Q1016 R29/510150 NOSIG RMK QFE704/0938
Conditions at: UIAA (CITA/KADALA , RU) observed 1730 UTC 19 March 2019
Temperature: -15.0°C ( 5°F)
Dewpoint: -17.0°C ( 1°F) [RH = 85%]
Pressure (altimeter): 30.00 inches Hg (1016.0 mb)
Winds: from the E (80 degrees) at 2 MPH (2 knots; 1.0 m/s)
Visibility: 6 or more miles (10+ km)
Ceiling: at least 12,000 feet AGL
Clouds: sky clear below 12,000 feet AGL
Weather: no significant weather observed at this time

METAR text: UIAA 191700Z 00000MPS 9999 NSC M15/M17 Q1016 R29/510150 NOSIG RMK QFE703/0938
Conditions at: UIAA (CITA/KADALA , RU) observed 1700 UTC 19 March 2019
Temperature: -15.0°C ( 5°F)
Dewpoint: -17.0°C ( 1°F) [RH = 85%]
Pressure (altimeter): 30.00 inches Hg (1016.0 mb)
Winds: calm
Visibility: 6 or more miles (10+ km)
Ceiling: at least 12,000 feet AGL
Clouds: sky clear below 12,000 feet AGL
Weather: no significant weather observed at this time

METAR text: UIAA 191630Z VRB01MPS 9999 NSC M13/M16 Q1016 R29/510150 NOSIG RMK QFE703/0938
Conditions at: UIAA (CITA/KADALA , RU) observed 1630 UTC 19 March 2019
Temperature: -13.0°C ( 9°F)
Dewpoint: -16.0°C ( 3°F) [RH = 78%]
Pressure (altimeter): 30.00 inches Hg (1016.0 mb)
Winds: variable direction winds at 2 MPH (2 knots; 1.0 m/s)
Visibility: 6 or more miles (10+ km)
Ceiling: at least 12,000 feet AGL
Clouds: sky clear below 12,000 feet AGL
Weather: no significant weather observed at this time

METAR text: UIAA 191600Z VRB01MPS 9999 NSC M12/M16 Q1016 R29/510150 NOSIG RMK QFE703/0938
Conditions at: UIAA (CITA/KADALA , RU) observed 1600 UTC 19 March 2019
Temperature: -12.0°C (10°F)
Dewpoint: -16.0°C ( 3°F) [RH = 72%]
Pressure (altimeter): 30.00 inches Hg (1016.0 mb)
Winds: variable direction winds at 2 MPH (2 knots; 1.0 m/s)
Visibility: 6 or more miles (10+ km)
Ceiling: at least 12,000 feet AGL
Clouds: sky clear below 12,000 feet AGL
Weather: no significant weather observed at this time

METAR text: UIAA 191530Z 31001MPS 9999 NSC M12/M16 Q1016 R29/510150 NOSIG RMK QFE703/0938
Conditions at: UIAA (CITA/KADALA , RU) observed 1530 UTC 19 March 2019
Temperature: -12.0°C (10°F)
Dewpoint: -16.0°C ( 3°F) [RH = 72%]
Pressure (altimeter): 30.00 inches Hg (1016.0 mb)
Winds: from the NW (310 degrees) at 2 MPH (2 knots; 1.0 m/s)
Visibility: 6 or more miles (10+ km)
Ceiling: at least 12,000 feet AGL
Clouds: sky clear below 12,000 feet AGL
Weather: no significant weather observed at this time

METAR text: UIAA 191500Z VRB01MPS 9999 NSC M11/M15 Q1016 R29/510150 NOSIG RMK QFE703/0938
Conditions at: UIAA (CITA/KADALA , RU) observed 1500 UTC 19 March 2019
Temperature: -11.0°C (12°F)
Dewpoint: -15.0°C ( 5°F) [RH = 72%]
Pressure (altimeter): 30.00 inches Hg (1016.0 mb)
Winds: variable direction winds at 2 MPH (2 knots; 1.0 m/s)
Visibility: 6 or more miles (10+ km)
Ceiling: at least 12,000 feet AGL
Clouds: sky clear below 12,000 feet AGL
Weather: no significant weather observed at this time

METAR text: UIAA 191430Z 19002MPS 9999 NSC M10/M14 Q1015 R29/510150 NOSIG RMK QFE703/0937
Conditions at: UIAA (CITA/KADALA , RU) observed 1430 UTC 19 March 2019
Temperature: -10.0°C (14°F)
Dewpoint: -14.0°C ( 7°F) [RH = 72%]
Pressure (altimeter): 29.97 inches Hg (1015.0 mb)
Winds: from the S (190 degrees) at 5 MPH (4 knots; 2.1 m/s)
Visibility: 6 or more miles (10+ km)
Ceiling: at least 12,000 feet AGL
Clouds: sky clear below 12,000 feet AGL
Weather: no significant weather observed at this time

METAR text: UIAA 191400Z 21002MPS 9999 NSC M10/M15 Q1015 R29/510150 NOSIG RMK QFE703/0937
Conditions at: UIAA (CITA/KADALA , RU) observed 1400 UTC 19 March 2019
Temperature: -10.0°C (14°F)
Dewpoint: -15.0°C ( 5°F) [RH = 67%]
Pressure (altimeter): 29.97 inches Hg (1015.0 mb)
Winds: from the SSW (210 degrees) at 5 MPH (4 knots; 2.1 m/s)
Visibility: 6 or more miles (10+ km)
Ceiling: at least 12,000 feet AGL
Clouds: sky clear below 12,000 feet AGL
Weather: no significant weather observed at this time

METAR text: UIAA 191330Z VRB01MPS 9999 NSC M10/M15 Q1015 R29/510150 NOSIG RMK QFE703/0937
Conditions at: UIAA (CITA/KADALA , RU) observed 1330 UTC 19 March 2019
Temperature: -10.0°C (14°F)
Dewpoint: -15.0°C ( 5°F) [RH = 67%]
Pressure (altimeter): 29.97 inches Hg (1015.0 mb)
Winds: variable direction winds at 2 MPH (2 knots; 1.0 m/s)
Visibility: 6 or more miles (10+ km)
Ceiling: at least 12,000 feet AGL
Clouds: sky clear below 12,000 feet AGL
Weather: no significant weather observed at this time

METAR text: UIAA 191300Z VRB01MPS 9999 NSC M10/M15 Q1015 R29/510150 NOSIG RMK QFE703/0937
Conditions at: UIAA (CITA/KADALA , RU) observed 1300 UTC 19 March 2019
Temperature: -10.0°C (14°F)
Dewpoint: -15.0°C ( 5°F) [RH = 67%]
Pressure (altimeter): 29.97 inches Hg (1015.0 mb)
Winds: variable direction winds at 2 MPH (2 knots; 1.0 m/s)
Visibility: 6 or more miles (10+ km)
Ceiling: at least 12,000 feet AGL
Clouds: sky clear below 12,000 feet AGL
Weather: no significant weather observed at this time

METAR text: UIAA 191230Z VRB01MPS 9999 NSC M09/M15 Q1015 R29/510150 NOSIG RMK QFE702/0937
Conditions at: UIAA (CITA/KADALA , RU) observed 1230 UTC 19 March 2019
Temperature: -9.0°C (16°F)
Dewpoint: -15.0°C ( 5°F) [RH = 62%]
Pressure (altimeter): 29.97 inches Hg (1015.0 mb)
Winds: variable direction winds at 2 MPH (2 knots; 1.0 m/s)
Visibility: 6 or more miles (10+ km)
Ceiling: at least 12,000 feet AGL
Clouds: sky clear below 12,000 feet AGL
Weather: no significant weather observed at this time

METAR text: UIAA 191200Z 30003MPS 9999 NSC M13/M17 Q1014 R29/510150 NOSIG RMK QFE702/0936
Conditions at: UIAA (CITA/KADALA , RU) observed 1200 UTC 19 March 2019
Temperature: -13.0°C ( 9°F)
Dewpoint: -17.0°C ( 1°F) [RH = 72%]
Pressure (altimeter): 29.94 inches Hg (1014.0 mb)
Winds: from the WNW (300 degrees) at 7 MPH (6 knots; 3.1 m/s)
Visibility: 6 or more miles (10+ km)
Ceiling: at least 12,000 feet AGL
Clouds: sky clear below 12,000 feet AGL
Weather: no significant weather observed at this time

METAR text: UIAA 191130Z 28003MPS 9999 NSC M11/M16 Q1014 R29/510150 NOSIG RMK QFE702/0936
Conditions at: UIAA (CITA/KADALA , RU) observed 1130 UTC 19 March 2019
Temperature: -11.0°C (12°F)
Dewpoint: -16.0°C ( 3°F) [RH = 67%]
Pressure (altimeter): 29.94 inches Hg (1014.0 mb)
Winds: from the W (280 degrees) at 7 MPH (6 knots; 3.1 m/s)
Visibility: 6 or more miles (10+ km)
Ceiling: at least 12,000 feet AGL
Clouds: sky clear below 12,000 feet AGL
Weather: no significant weather observed at this time

METAR text: UIAA 191100Z 29002MPS 9999 NSC M11/M16 Q1014 R29/510150 NOSIG RMK QFE702/0936
Conditions at: UIAA (CITA/KADALA , RU) observed 1100 UTC 19 March 2019
Temperature: -11.0°C (12°F)
Dewpoint: -16.0°C ( 3°F) [RH = 67%]
Pressure (altimeter): 29.94 inches Hg (1014.0 mb)
Winds: from the WNW (290 degrees) at 5 MPH (4 knots; 2.1 m/s)
Visibility: 6 or more miles (10+ km)
Ceiling: at least 12,000 feet AGL
Clouds: sky clear below 12,000 feet AGL
Weather: no significant weather observed at this time

METAR text: UIAA 191030Z 34002MPS 9999 NSC M05/M14 Q1013 R29/510150 NOSIG RMK QFE701/0935
Conditions at: UIAA (CITA/KADALA , RU) observed 1030 UTC 19 March 2019
Temperature: -5.0°C (23°F)
Dewpoint: -14.0°C ( 7°F) [RH = 49%]
Pressure (altimeter): 29.91 inches Hg (1013.0 mb)
Winds: from the NNW (340 degrees) at 5 MPH (4 knots; 2.1 m/s)
Visibility: 6 or more miles (10+ km)
Ceiling: at least 12,000 feet AGL
Clouds: sky clear below 12,000 feet AGL
Weather: no significant weather observed at this time

METAR text: UIAA 191000Z 33002MPS 9999 NSC M03/M14 Q1013 R29/510150 NOSIG RMK QFE701/0935
Conditions at: UIAA (CITA/KADALA , RU) observed 1000 UTC 19 March 2019
Temperature: -3.0°C (27°F)
Dewpoint: -14.0°C ( 7°F) [RH = 42%]
Pressure (altimeter): 29.91 inches Hg (1013.0 mb)
Winds: from the NNW (330 degrees) at 5 MPH (4 knots; 2.1 m/s)
Visibility: 6 or more miles (10+ km)
Ceiling: at least 12,000 feet AGL
Clouds: sky clear below 12,000 feet AGL
Weather: no significant weather observed at this time

METAR text: UIAA 190930Z 02002MPS 9999 SCT050CB M01/M15 Q1013 R29/510150 NOSIG RMK QFE701/0935
Conditions at: UIAA (CITA/KADALA , RU) observed 0930 UTC 19 March 2019
Temperature: -1.0°C (30°F)
Dewpoint: -15.0°C ( 5°F) [RH = 34%]
Pressure (altimeter): 29.91 inches Hg (1013.0 mb)
Winds: from the NNE (20 degrees) at 5 MPH (4 knots; 2.1 m/s)
Visibility: 6 or more miles (10+ km)
Ceiling: at least 12,000 feet AGL
Clouds: scattered clouds at 5000 feet AGL
Weather: no significant weather observed at this time

METAR text: UIAA 190900Z 03002MPS 9999 SCT050CB M03/M13 Q1012 R29/510150 NOSIG RMK QFE701/0935
Conditions at: UIAA (CITA/KADALA , RU) observed 0900 UTC 19 March 2019
Temperature: -3.0°C (27°F)
Dewpoint: -13.0°C ( 9°F) [RH = 46%]
Pressure (altimeter): 29.88 inches Hg (1012.0 mb)
Winds: from the NNE (30 degrees) at 5 MPH (4 knots; 2.1 m/s)
Visibility: 6 or more miles (10+ km)
Ceiling: at least 12,000 feet AGL
Clouds: scattered clouds at 5000 feet AGL
Weather: no significant weather observed at this time

METAR text: UIAA 190830Z 02003MPS 9999 SCT050CB M03/M14 Q1012 R29/510150 NOSIG RMK QFE701/0935
Conditions at: UIAA (CITA/KADALA , RU) observed 0830 UTC 19 March 2019
Temperature: -3.0°C (27°F)
Dewpoint: -14.0°C ( 7°F) [RH = 42%]
Pressure (altimeter): 29.88 inches Hg (1012.0 mb)
Winds: from the NNE (20 degrees) at 7 MPH (6 knots; 3.1 m/s)
Visibility: 6 or more miles (10+ km)
Ceiling: at least 12,000 feet AGL
Clouds: scattered clouds at 5000 feet AGL
Weather: no significant weather observed at this time

METAR text: UIAA 190800Z 01003MPS 9999 SCT050CB M02/M14 Q1013 R29/510150 NOSIG RMK QFE701/0935
Conditions at: UIAA (CITA/KADALA , RU) observed 0800 UTC 19 March 2019
Temperature: -2.0°C (28°F)
Dewpoint: -14.0°C ( 7°F) [RH = 39%]
Pressure (altimeter): 29.91 inches Hg (1013.0 mb)
Winds: from the N (10 degrees) at 7 MPH (6 knots; 3.1 m/s)
Visibility: 6 or more miles (10+ km)
Ceiling: at least 12,000 feet AGL
Clouds: scattered clouds at 5000 feet AGL
Weather: no significant weather observed at this time

METAR text: UIAA 190730Z 02003MPS 9999 SCT050CB M02/M14 Q1013 R29/510150 NOSIG RMK QFE701/0935
Conditions at: UIAA (CITA/KADALA , RU) observed 0730 UTC 19 March 2019
Temperature: -2.0°C (28°F)
Dewpoint: -14.0°C ( 7°F) [RH = 39%]
Pressure (altimeter): 29.91 inches Hg (1013.0 mb)
Winds: from the NNE (20 degrees) at 7 MPH (6 knots; 3.1 m/s)
Visibility: 6 or more miles (10+ km)
Ceiling: at least 12,000 feet AGL
Clouds: scattered clouds at 5000 feet AGL
Weather: no significant weather observed at this time

METAR text: UIAA 190700Z 02003MPS 9999 SCT050CB M02/M14 Q1013 R29/510150 NOSIG RMK QFE701/0935
Conditions at: UIAA (CITA/KADALA , RU) observed 0700 UTC 19 March 2019
Temperature: -2.0°C (28°F)
Dewpoint: -14.0°C ( 7°F) [RH = 39%]
Pressure (altimeter): 29.91 inches Hg (1013.0 mb)
Winds: from the NNE (20 degrees) at 7 MPH (6 knots; 3.1 m/s)
Visibility: 6 or more miles (10+ km)
Ceiling: at least 12,000 feet AGL
Clouds: scattered clouds at 5000 feet AGL
Weather: no significant weather observed at this time

METAR text: UIAA 190630Z 01004MPS 9999 NSC M01/M16 Q1013 R29/550245 NOSIG RMK QFE701/0935
Conditions at: UIAA (CITA/KADALA , RU) observed 0630 UTC 19 March 2019
Temperature: -1.0°C (30°F)
Dewpoint: -16.0°C ( 3°F) [RH = 31%]
Pressure (altimeter): 29.91 inches Hg (1013.0 mb)
Winds: from the N (10 degrees) at 9 MPH (8 knots; 4.1 m/s)
Visibility: 6 or more miles (10+ km)
Ceiling: at least 12,000 feet AGL
Clouds: sky clear below 12,000 feet AGL
Weather: no significant weather observed at this time

METAR text: UIAA 190600Z 36004MPS 9999 NSC M01/M14 Q1013 R29/550245 NOSIG RMK QFE701/0935
Conditions at: UIAA (CITA/KADALA , RU) observed 0600 UTC 19 March 2019
Temperature: -1.0°C (30°F)
Dewpoint: -14.0°C ( 7°F) [RH = 37%]
Pressure (altimeter): 29.91 inches Hg (1013.0 mb)
Winds: from the N (360 degrees) at 9 MPH (8 knots; 4.1 m/s)
Visibility: 6 or more miles (10+ km)
Ceiling: at least 12,000 feet AGL
Clouds: sky clear below 12,000 feet AGL
Weather: no significant weather observed at this time

METAR text: UIAA 190530Z 36003MPS 9999 NSC M01/M13 Q1012 R29/550245 NOSIG RMK QFE701/0935
Conditions at: UIAA (CITA/KADALA , RU) observed 0530 UTC 19 March 2019
Temperature: -1.0°C (30°F)
Dewpoint: -13.0°C ( 9°F) [RH = 40%]
Pressure (altimeter): 29.88 inches Hg (1012.0 mb)
Winds: from the N (360 degrees) at 7 MPH (6 knots; 3.1 m/s)
Visibility: 6 or more miles (10+ km)
Ceiling: at least 12,000 feet AGL
Clouds: sky clear below 12,000 feet AGL
Weather: no significant weather observed at this time

METAR text: UIAA 190500Z 01004MPS 9999 NSC M02/M13 Q1012 R29/550245 NOSIG RMK QFE701/0935
Conditions at: UIAA (CITA/KADALA , RU) observed 0500 UTC 19 March 2019
Temperature: -2.0°C (28°F)
Dewpoint: -13.0°C ( 9°F) [RH = 43%]
Pressure (altimeter): 29.88 inches Hg (1012.0 mb)
Winds: from the N (10 degrees) at 9 MPH (8 knots; 4.1 m/s)
Visibility: 6 or more miles (10+ km)
Ceiling: at least 12,000 feet AGL
Clouds: sky clear below 12,000 feet AGL
Weather: no significant weather observed at this time

METAR text: UIAA 190430Z 02003MPS 9999 NSC M02/M14 Q1012 R29/550245 NOSIG RMK QFE701/0934
Conditions at: UIAA (CITA/KADALA , RU) observed 0430 UTC 19 March 2019
Temperature: -2.0°C (28°F)
Dewpoint: -14.0°C ( 7°F) [RH = 39%]
Pressure (altimeter): 29.88 inches Hg (1012.0 mb)
Winds: from the NNE (20 degrees) at 7 MPH (6 knots; 3.1 m/s)
Visibility: 6 or more miles (10+ km)
Ceiling: at least 12,000 feet AGL
Clouds: sky clear below 12,000 feet AGL
Weather: no significant weather observed at this time

METAR text: UIAA 190400Z 01004MPS 9999 NSC M03/M14 Q1012 R29/490538 NOSIG RMK QFE701/0934
Conditions at: UIAA (CITA/KADALA , RU) observed 0400 UTC 19 March 2019
Temperature: -3.0°C (27°F)
Dewpoint: -14.0°C ( 7°F) [RH = 42%]
Pressure (altimeter): 29.88 inches Hg (1012.0 mb)
Winds: from the N (10 degrees) at 9 MPH (8 knots; 4.1 m/s)
Visibility: 6 or more miles (10+ km)
Ceiling: at least 12,000 feet AGL
Clouds: sky clear below 12,000 feet AGL
Weather: no significant weather observed at this time

METAR text: UIAA 190330Z 02004MPS 9999 NSC M03/M12 Q1012 R29/490538 NOSIG RMK QFE701/0934
Conditions at: UIAA (CITA/KADALA , RU) observed 0330 UTC 19 March 2019
Temperature: -3.0°C (27°F)
Dewpoint: -12.0°C (10°F) [RH = 50%]
Pressure (altimeter): 29.88 inches Hg (1012.0 mb)
Winds: from the NNE (20 degrees) at 9 MPH (8 knots; 4.1 m/s)
Visibility: 6 or more miles (10+ km)
Ceiling: at least 12,000 feet AGL
Clouds: sky clear below 12,000 feet AGL
Weather: no significant weather observed at this time

METAR text: UIAA 190300Z 02004MPS 9999 NSC M04/M13 Q1012 R29/490538 NOSIG RMK QFE701/0934
Conditions at: UIAA (CITA/KADALA , RU) observed 0300 UTC 19 March 2019
Temperature: -4.0°C (25°F)
Dewpoint: -13.0°C ( 9°F) [RH = 50%]
Pressure (altimeter): 29.88 inches Hg (1012.0 mb)
Winds: from the NNE (20 degrees) at 9 MPH (8 knots; 4.1 m/s)
Visibility: 6 or more miles (10+ km)
Ceiling: at least 12,000 feet AGL
Clouds: sky clear below 12,000 feet AGL
Weather: no significant weather observed at this time

METAR text: UIAA 190230Z 34004MPS 9999 FEW050CB M05/M13 Q1012 R29/490538 NOSIG RMK QFE701/0934
Conditions at: UIAA (CITA/KADALA , RU) observed 0230 UTC 19 March 2019
Temperature: -5.0°C (23°F)
Dewpoint: -13.0°C ( 9°F) [RH = 53%]
Pressure (altimeter): 29.88 inches Hg (1012.0 mb)
Winds: from the NNW (340 degrees) at 9 MPH (8 knots; 4.1 m/s)
Visibility: 6 or more miles (10+ km)
Ceiling: at least 12,000 feet AGL
Clouds: few clouds at 5000 feet AGL
Weather: no significant weather observed at this time

METAR text: UIAA 190200Z 34005MPS 9999 FEW050CB M05/M13 Q1012 R29/490538 NOSIG RMK QFE700/0934
Conditions at: UIAA (CITA/KADALA , RU) observed 0200 UTC 19 March 2019
Temperature: -5.0°C (23°F)
Dewpoint: -13.0°C ( 9°F) [RH = 53%]
Pressure (altimeter): 29.88 inches Hg (1012.0 mb)
Winds: from the NNW (340 degrees) at 12 MPH (10 knots; 5.1 m/s)
Visibility: 6 or more miles (10+ km)
Ceiling: at least 12,000 feet AGL
Clouds: few clouds at 5000 feet AGL
Weather: no significant weather observed at this time

METAR text: UIAA 190130Z 34004MPS 9999 SCT050CB M06/M13 Q1012 R29/490538 NOSIG RMK QFE700/0934
Conditions at: UIAA (CITA/KADALA , RU) observed 0130 UTC 19 March 2019
Temperature: -6.0°C (21°F)
Dewpoint: -13.0°C ( 9°F) [RH = 58%]
Pressure (altimeter): 29.88 inches Hg (1012.0 mb)
Winds: from the NNW (340 degrees) at 9 MPH (8 knots; 4.1 m/s)
Visibility: 6 or more miles (10+ km)
Ceiling: at least 12,000 feet AGL
Clouds: scattered clouds at 5000 feet AGL
Weather: no significant weather observed at this time

METAR text: UIAA 190100Z 35004MPS 9999 SCT043CB M07/M14 Q1011 R29/490538 NOSIG RMK QFE700/0934
Conditions at: UIAA (CITA/KADALA , RU) observed 0100 UTC 19 March 2019
Temperature: -7.0°C (19°F)
Dewpoint: -14.0°C ( 7°F) [RH = 57%]
Pressure (altimeter): 29.85 inches Hg (1011.0 mb)
Winds: from the N (350 degrees) at 9 MPH (8 knots; 4.1 m/s)
Visibility: 6 or more miles (10+ km)
Ceiling: at least 12,000 feet AGL
Clouds: scattered clouds at 4300 feet AGL
Weather: no significant weather observed at this time

METAR text: UIAA 190030Z 34004MPS 9999 SCT043CB M08/M14 Q1011 R29/490538 NOSIG RMK QFE700/0933
Conditions at: UIAA (CITA/KADALA , RU) observed 0030 UTC 19 March 2019
Temperature: -8.0°C (18°F)
Dewpoint: -14.0°C ( 7°F) [RH = 62%]
Pressure (altimeter): 29.85 inches Hg (1011.0 mb)
Winds: from the NNW (340 degrees) at 9 MPH (8 knots; 4.1 m/s)
Visibility: 6 or more miles (10+ km)
Ceiling: at least 12,000 feet AGL
Clouds: scattered clouds at 4300 feet AGL
Weather: no significant weather observed at this time

METAR text: UIAA 190000Z 34005MPS 9999 SCT043CB M07/M14 Q1010 R29/490538 NOSIG RMK QFE700/0933
Conditions at: UIAA (CITA/KADALA , RU) observed 0000 UTC 19 March 2019
Temperature: -7.0°C (19°F)
Dewpoint: -14.0°C ( 7°F) [RH = 57%]
Pressure (altimeter): 29.82 inches Hg (1010.0 mb)
Winds: from the NNW (340 degrees) at 12 MPH (10 knots; 5.1 m/s)
Visibility: 6 or more miles (10+ km)
Ceiling: at least 12,000 feet AGL
Clouds: scattered clouds at 4300 feet AGL
Weather: no significant weather observed at this time

METAR text: UIAA 182330Z 35005MPS 9999 SCT043CB M07/M14 Q1010 R29/490538 NOSIG RMK QFE699/0932
Conditions at: UIAA (CITA/KADALA , RU) observed 2330 UTC 18 March 2019
Temperature: -7.0°C (19°F)
Dewpoint: -14.0°C ( 7°F) [RH = 57%]
Pressure (altimeter): 29.82 inches Hg (1010.0 mb)
Winds: from the N (350 degrees) at 12 MPH (10 knots; 5.1 m/s)
Visibility: 6 or more miles (10+ km)
Ceiling: at least 12,000 feet AGL
Clouds: scattered clouds at 4300 feet AGL
Weather: no significant weather observed at this time

METAR text: UIAA 182300Z 34007MPS 9999 SCT043CB M07/M13 Q1009 R29/490538 NOSIG RMK QFE698/0931
Conditions at: UIAA (CITA/KADALA , RU) observed 2300 UTC 18 March 2019
Temperature: -7.0°C (19°F)
Dewpoint: -13.0°C ( 9°F) [RH = 62%]
Pressure (altimeter): 29.79 inches Hg (1009.0 mb)
Winds: from the NNW (340 degrees) at 16 MPH (14 knots; 7.2 m/s)
Visibility: 6 or more miles (10+ km)
Ceiling: at least 12,000 feet AGL
Clouds: scattered clouds at 4300 feet AGL
Weather: no significant weather observed at this time

METAR text: UIAA 182230Z 34007MPS 9999 SCT043CB M07/M12 Q1008 R29/490538 NOSIG RMK QFE698/0931
Conditions at: UIAA (CITA/KADALA , RU) observed 2230 UTC 18 March 2019
Temperature: -7.0°C (19°F)
Dewpoint: -12.0°C (10°F) [RH = 67%]
Pressure (altimeter): 29.76 inches Hg (1008.0 mb)
Winds: from the NNW (340 degrees) at 16 MPH (14 knots; 7.2 m/s)
Visibility: 6 or more miles (10+ km)
Ceiling: at least 12,000 feet AGL
Clouds: scattered clouds at 4300 feet AGL
Weather: no significant weather observed at this time

METAR text: UIAA 182200Z 34007MPS 9999 DRSN SCT043CB M07/M11 Q1008 R29/490538 NOSIG RMK QFE698/0930
Conditions at: UIAA (CITA/KADALA , RU) observed 2200 UTC 18 March 2019
Temperature: -7.0°C (19°F)
Dewpoint: -11.0°C (12°F) [RH = 73%]
Pressure (altimeter): 29.76 inches Hg (1008.0 mb)
Winds: from the NNW (340 degrees) at 16 MPH (14 knots; 7.2 m/s)
Visibility: 6 or more miles (10+ km)
Ceiling: at least 12,000 feet AGL
Clouds: scattered clouds at 4300 feet AGL
Weather: DRSN  (low drifting snow)

METAR text: UIAA 182130Z 34007MPS 9999 -SHSN DRSN BKN040CB M06/M10 Q1007 R29/490538 NOSIG RMK QFE697/0930
Conditions at: UIAA (CITA/KADALA , RU) observed 2130 UTC 18 March 2019
Temperature: -6.0°C (21°F)
Dewpoint: -10.0°C (14°F) [RH = 73%]
Pressure (altimeter): 29.73 inches Hg (1007.0 mb)
Winds: from the NNW (340 degrees) at 16 MPH (14 knots; 7.2 m/s)
Visibility: 6 or more miles (10+ km)
Ceiling: 4000 feet AGL
Clouds: broken clouds at 4000 feet AGL
Weather: -SHSN DRSN  (light snow showers, low drifting snow)

METAR text: UIAA 182100Z 35006MPS 9999 -SHSN DRSN BKN033CB M06/M09 Q1007 R29/990535 NOSIG RMK QFE697/0930
Conditions at: UIAA (CITA/KADALA , RU) observed 2100 UTC 18 March 2019
Temperature: -6.0°C (21°F)
Dewpoint: -9.0°C (16°F) [RH = 79%]
Pressure (altimeter): 29.73 inches Hg (1007.0 mb)
Winds: from the N (350 degrees) at 14 MPH (12 knots; 6.2 m/s)
Visibility: 6 or more miles (10+ km)
Ceiling: 3300 feet AGL
Clouds: broken clouds at 3300 feet AGL
Weather: -SHSN DRSN  (light snow showers, low drifting snow)

METAR text: UIAA 182030Z 35007MPS 9000 -SHSN DRSN BKN033CB M06/M08 Q1007 R29/990535 NOSIG RMK QFE697/0929
Conditions at: UIAA (CITA/KADALA , RU) observed 2030 UTC 18 March 2019
Temperature: -6.0°C (21°F)
Dewpoint: -8.0°C (18°F) [RH = 86%]
Pressure (altimeter): 29.73 inches Hg (1007.0 mb)
Winds: from the N (350 degrees) at 16 MPH (14 knots; 7.2 m/s)
Visibility: 6 miles ( 9 km)
Ceiling: 3300 feet AGL
Clouds: broken clouds at 3300 feet AGL
Weather: -SHSN DRSN  (light snow showers, low drifting snow)

METAR text: UIAA 182000Z 35007MPS 9000 -SHSN DRSN BKN033CB M06/M07 Q1007 R29/593030 NOSIG RMK QFE697/0929
Conditions at: UIAA (CITA/KADALA , RU) observed 2000 UTC 18 March 2019
Temperature: -6.0°C (21°F)
Dewpoint: -7.0°C (19°F) [RH = 93%]
Pressure (altimeter): 29.73 inches Hg (1007.0 mb)
Winds: from the N (350 degrees) at 16 MPH (14 knots; 7.2 m/s)
Visibility: 6 miles ( 9 km)
Ceiling: 3300 feet AGL
Clouds: broken clouds at 3300 feet AGL
Weather: -SHSN DRSN  (light snow showers, low drifting snow)

Forecast for: UIAA (CITA/KADALA , RU)
Text: TAF UIAA 200500Z 2006/2106 33003G08MPS 9999 SCT040CB
Forecast period: 0600 UTC 20 March 2019 to 0600 UTC 21 March 2019
Forecast type: FROM: standard forecast or significant change
Winds: from the NNW (330 degrees) at 7 MPH (6 knots; 3.1 m/s)
gusting to 18 MPH (16 knots; 8.2 m/s)
Visibility: 6 or more miles 10+ km)
Ceiling: at least 12,000 feet AGL
Clouds: scattered clouds at 4000 feet AGL
Weather: no significant weather forecast for this period
Text: TEMPO 2100/2106 27005MPS
Forecast period: 0000 to 0600 UTC 21 March 2019
Forecast type: TEMPORARY: The following changes expected for less than half the time period
Winds: from the W (270 degrees) at 12 MPH (10 knots; 5.1 m/s)
Visibility: missing
Ceiling: unknown
Clouds: missing
Weather: no significant weather forecast for this period